< Typhoon 200717 2007 Season Typhoon 200719 >
Typhoon 200718 (LINGLING)
General InformationTrack Information on Google MapsDetailed Wind InformationAccess Analytics MapList of All Images || NewsDisaster Info.WeblogTrackbackTyphoon FrontResourceGoogle EarthGE AnimationAtom FeedGeoJSON
Detalied Best Track (Time Zone = UTC)
Year Month Day Hour Lat. Long. Pressure (hPa) Wind (kt) Class Image Chart
2007 10 10 12 21.1 175.7 1008 0 2 Image Chart
2007 10 10 18 21.6 175.5 1008 0 2 Image Chart
2007 10 11 00 22.4 175.2 1008 0 2 Image Chart
2007 10 11 06 23.0 174.9 1008 0 2 Image Chart
2007 10 11 12 23.6 174.4 1006 0 2 Image Chart
2007 10 11 18 24.2 173.7 1002 35 3 Image Chart
2007 10 12 00 24.8 173.4 1000 35 3 Image Chart
2007 10 12 06 25.4 172.7 996 40 3 Image Chart
2007 10 12 12 25.9 172.2 994 45 3 Image Chart
2007 10 12 18 26.6 171.8 994 45 3 Image Chart
2007 10 13 00 27.5 171.3 996 45 3 Image Chart
2007 10 13 06 28.3 170.7 998 40 3 Image Chart
2007 10 13 12 29.2 170.3 998 40 3 Image Chart
2007 10 13 18 30.3 170.0 998 40 3 Image Chart
2007 10 14 00 31.3 169.8 1000 35 3 Image Chart
2007 10 14 06 32.5 170.5 1002 35 3 Image Chart
2007 10 14 12 33.5 171.8 1004 35 3 Image Chart
2007 10 14 18 34.3 173.1 1006 35 3 Image Chart
2007 10 15 00 35.1 175.4 1006 35 3 Image Chart
2007 10 15 06 36.0 178.0 1006 0 6 Image Chart
2007 10 15 12 37.5 181.2 1008 0 6 Image Chart
Japan Meteorological Agency Best Track Data | Correction Date : 2007-11-28
< Typhoon 200717 2007 Season Typhoon 200719 >

Help